sensor_id;sensor_type;location;lat;lon;timestamp;temperature;humidity
4461;DHT22;2243;48.812;9.232;2022-11-02T00:01:23;9.70;99.90
4461;DHT22;2243;48.812;9.232;2022-11-02T00:03:56;9.70;99.90
4461;DHT22;2243;48.812;9.232;2022-11-02T00:06:27;9.60;99.90
4461;DHT22;2243;48.812;9.232;2022-11-02T00:08:58;9.60;99.90
4461;DHT22;2243;48.812;9.232;2022-11-02T00:11:29;9.60;99.90
4461;DHT22;2243;48.812;9.232;2022-11-02T00:14:00;9.60;99.90
4461;DHT22;2243;48.812;9.232;2022-11-02T00:16:31;9.70;99.90
4461;DHT22;2243;48.812;9.232;2022-11-02T00:19:03;9.80;99.90
4461;DHT22;2243;48.812;9.232;2022-11-02T00:21:34;10.00;99.90
4461;DHT22;2243;48.812;9.232;2022-11-02T00:24:09;10.10;99.90
4461;DHT22;2243;48.812;9.232;2022-11-02T00:26:41;10.20;99.90
4461;DHT22;2243;48.812;9.232;2022-11-02T00:29:12;10.20;99.90
4461;DHT22;2243;48.812;9.232;2022-11-02T00:31:43;10.40;99.90
4461;DHT22;2243;48.812;9.232;2022-11-02T00:34:13;10.30;99.90
4461;DHT22;2243;48.812;9.232;2022-11-02T00:36:44;10.30;99.90
4461;DHT22;2243;48.812;9.232;2022-11-02T00:39:15;10.50;99.90
4461;DHT22;2243;48.812;9.232;2022-11-02T00:41:46;10.40;99.90
4461;DHT22;2243;48.812;9.232;2022-11-02T00:44:17;10.40;99.90
4461;DHT22;2243;48.812;9.232;2022-11-02T00:46:48;10.40;99.90
4461;DHT22;2243;48.812;9.232;2022-11-02T00:49:19;10.40;99.90
4461;DHT22;2243;48.812;9.232;2022-11-02T00:51:50;10.40;99.90
4461;DHT22;2243;48.812;9.232;2022-11-02T00:54:21;10.30;99.90
4461;DHT22;2243;48.812;9.232;2022-11-02T00:56:57;10.20;99.90
4461;DHT22;2243;48.812;9.232;2022-11-02T00:59:33;10.10;99.90
4461;DHT22;2243;48.812;9.232;2022-11-02T01:02:04;10.20;99.90
4461;DHT22;2243;48.812;9.232;2022-11-02T01:04:35;10.20;99.90
4461;DHT22;2243;48.812;9.232;2022-11-02T01:07:06;10.20;99.90
4461;DHT22;2243;48.812;9.232;2022-11-02T01:09:37;10.20;99.90
4461;DHT22;2243;48.812;9.232;2022-11-02T01:12:08;10.40;99.90
4461;DHT22;2243;48.812;9.232;2022-11-02T01:14:39;10.40;99.90
4461;DHT22;2243;48.812;9.232;2022-11-02T01:17:10;10.20;99.90
4461;DHT22;2243;48.812;9.232;2022-11-02T01:19:41;10.30;99.90
4461;DHT22;2243;48.812;9.232;2022-11-02T01:22:12;10.40;99.90
4461;DHT22;2243;48.812;9.232;2022-11-02T01:24:43;10.40;99.90
4461;DHT22;2243;48.812;9.232;2022-11-02T01:27:14;10.40;99.90
4461;DHT22;2243;48.812;9.232;2022-11-02T01:29:44;10.50;99.90
4461;DHT22;2243;48.812;9.232;2022-11-02T01:32:15;10.50;99.90
4461;DHT22;2243;48.812;9.232;2022-11-02T01:34:46;10.50;99.90
4461;DHT22;2243;48.812;9.232;2022-11-02T01:37:17;10.50;99.90
4461;DHT22;2243;48.812;9.232;2022-11-02T01:39:48;10.50;99.90
4461;DHT22;2243;48.812;9.232;2022-11-02T01:42:24;10.40;99.90
4461;DHT22;2243;48.812;9.232;2022-11-02T01:44:55;10.40;99.90
4461;DHT22;2243;48.812;9.232;2022-11-02T01:47:36;10.40;99.90
4461;DHT22;2243;48.812;9.232;2022-11-02T01:50:15;10.30;99.90
4461;DHT22;2243;48.812;9.232;2022-11-02T01:52:49;10.30;99.90
4461;DHT22;2243;48.812;9.232;2022-11-02T01:55:26;10.30;99.90
4461;DHT22;2243;48.812;9.232;2022-11-02T01:58:02;10.20;99.90
4461;DHT22;2243;48.812;9.232;2022-11-02T02:00:38;10.20;99.90
4461;DHT22;2243;48.812;9.232;2022-11-02T02:03:12;10.30;99.90
4461;DHT22;2243;48.812;9.232;2022-11-02T02:05:54;10.50;99.90
4461;DHT22;2243;48.812;9.232;2022-11-02T02:08:40;10.50;99.90
4461;DHT22;2243;48.812;9.232;2022-11-02T02:11:33;10.50;99.90
4461;DHT22;2243;48.812;9.232;2022-11-02T02:14:11;10.50;99.90
4461;DHT22;2243;48.812;9.232;2022-11-02T02:19:42;10.50;99.90
4461;DHT22;2243;48.812;9.232;2022-11-02T02:28:26;10.70;99.90
4461;DHT22;2243;48.812;9.232;2022-11-02T02:31:12;10.80;99.90
4461;DHT22;2243;48.812;9.232;2022-11-02T02:34:12;10.70;99.90
4461;DHT22;2243;48.812;9.232;2022-11-02T02:36:57;10.70;99.90
4461;DHT22;2243;48.812;9.232;2022-11-02T02:40:03;10.50;99.90
4461;DHT22;2243;48.812;9.232;2022-11-02T02:42:52;10.60;99.90
4461;DHT22;2243;48.812;9.232;2022-11-02T02:45:41;10.60;99.90
4461;DHT22;2243;48.812;9.232;2022-11-02T02:48:19;10.70;99.90
4461;DHT22;2243;48.812;9.232;2022-11-02T02:50:55;10.70;99.90
4461;DHT22;2243;48.812;9.232;2022-11-02T02:53:36;10.70;99.90
4461;DHT22;2243;48.812;9.232;2022-11-02T02:56:09;10.70;99.90
4461;DHT22;2243;48.812;9.232;2022-11-02T02:58:57;10.70;99.90
4461;DHT22;2243;48.812;9.232;2022-11-02T03:01:30;10.70;99.90
4461;DHT22;2243;48.812;9.232;2022-11-02T03:04:01;10.60;99.90
4461;DHT22;2243;48.812;9.232;2022-11-02T03:06:34;10.50;99.90
4461;DHT22;2243;48.812;9.232;2022-11-02T03:14:49;10.60;99.90
4461;DHT22;2243;48.812;9.232;2022-11-02T03:28:52;10.60;99.90
4461;DHT22;2243;48.812;9.232;2022-11-02T03:31:32;10.60;99.90
4461;DHT22;2243;48.812;9.232;2022-11-02T03:34:27;10.60;99.90
4461;DHT22;2243;48.812;9.232;2022-11-02T03:37:28;10.50;99.90
4461;DHT22;2243;48.812;9.232;2022-11-02T03:42:52;10.40;99.90
4461;DHT22;2243;48.812;9.232;2022-11-02T03:45:27;10.50;99.90
4461;DHT22;2243;48.812;9.232;2022-11-02T03:48:06;10.50;99.90
4461;DHT22;2243;48.812;9.232;2022-11-02T03:50:44;10.50;99.90
4461;DHT22;2243;48.812;9.232;2022-11-02T03:53:41;10.50;99.90
4461;DHT22;2243;48.812;9.232;2022-11-02T03:56:40;10.60;99.90
4461;DHT22;2243;48.812;9.232;2022-11-02T03:59:13;10.60;99.90
4461;DHT22;2243;48.812;9.232;2022-11-02T04:01:46;10.60;99.90
4461;DHT22;2243;48.812;9.232;2022-11-02T04:04:19;10.60;99.90
4461;DHT22;2243;48.812;9.232;2022-11-02T04:06:50;10.70;99.90
4461;DHT22;2243;48.812;9.232;2022-11-02T04:09:22;10.80;99.90
4461;DHT22;2243;48.812;9.232;2022-11-02T04:11:53;10.80;99.90
4461;DHT22;2243;48.812;9.232;2022-11-02T04:14:43;10.60;99.90
4461;DHT22;2243;48.812;9.232;2022-11-02T04:17:14;10.60;99.90
4461;DHT22;2243;48.812;9.232;2022-11-02T04:20:03;10.40;99.90
4461;DHT22;2243;48.812;9.232;2022-11-02T04:22:34;10.50;99.90
4461;DHT22;2243;48.812;9.232;2022-11-02T04:25:24;10.50;99.90
4461;DHT22;2243;48.812;9.232;2022-11-02T04:27:55;10.50;99.90
4461;DHT22;2243;48.812;9.232;2022-11-02T04:30:26;10.50;99.90
4461;DHT22;2243;48.812;9.232;2022-11-02T04:32:56;10.60;99.90
4461;DHT22;2243;48.812;9.232;2022-11-02T04:35:46;10.70;99.90
4461;DHT22;2243;48.812;9.232;2022-11-02T04:38:17;10.50;99.90
4461;DHT22;2243;48.812;9.232;2022-11-02T04:41:08;10.50;99.90
4461;DHT22;2243;48.812;9.232;2022-11-02T04:44:02;10.40;99.90
4461;DHT22;2243;48.812;9.232;2022-11-02T04:46:35;10.30;99.90
4461;DHT22;2243;48.812;9.232;2022-11-02T04:49:08;10.40;99.90
4461;DHT22;2243;48.812;9.232;2022-11-02T04:51:40;10.40;99.90
4461;DHT22;2243;48.812;9.232;2022-11-02T04:54:19;10.30;99.90
4461;DHT22;2243;48.812;9.232;2022-11-02T04:56:50;10.30;99.90
4461;DHT22;2243;48.812;9.232;2022-11-02T04:59:20;10.10;99.90
4461;DHT22;2243;48.812;9.232;2022-11-02T05:01:51;10.10;99.90
4461;DHT22;2243;48.812;9.232;2022-11-02T05:04:22;10.10;99.90
4461;DHT22;2243;48.812;9.232;2022-11-02T05:06:53;10.10;99.90
4461;DHT22;2243;48.812;9.232;2022-11-02T05:09:30;10.00;99.90
4461;DHT22;2243;48.812;9.232;2022-11-02T05:12:02;9.90;99.90
4461;DHT22;2243;48.812;9.232;2022-11-02T05:14:34;9.80;99.90
4461;DHT22;2243;48.812;9.232;2022-11-02T05:17:05;9.80;99.90
4461;DHT22;2243;48.812;9.232;2022-11-02T05:19:36;9.80;99.90
4461;DHT22;2243;48.812;9.232;2022-11-02T05:22:07;9.90;99.90
4461;DHT22;2243;48.812;9.232;2022-11-02T05:24:38;10.00;99.90
4461;DHT22;2243;48.812;9.232;2022-11-02T05:27:09;10.10;99.90
4461;DHT22;2243;48.812;9.232;2022-11-02T05:29:40;10.10;99.90
4461;DHT22;2243;48.812;9.232;2022-11-02T05:32:11;10.00;99.90
4461;DHT22;2243;48.812;9.232;2022-11-02T05:34:42;10.10;99.90
4461;DHT22;2243;48.812;9.232;2022-11-02T05:37:13;10.10;99.90
4461;DHT22;2243;48.812;9.232;2022-11-02T05:39:43;10.10;99.90
4461;DHT22;2243;48.812;9.232;2022-11-02T05:42:19;10.20;99.90
4461;DHT22;2243;48.812;9.232;2022-11-02T05:44:50;10.20;99.90
4461;DHT22;2243;48.812;9.232;2022-11-02T05:47:21;10.10;99.90
4461;DHT22;2243;48.812;9.232;2022-11-02T05:49:52;10.10;99.90
4461;DHT22;2243;48.812;9.232;2022-11-02T05:52:23;10.10;99.90
4461;DHT22;2243;48.812;9.232;2022-11-02T05:54:54;10.10;99.90
4461;DHT22;2243;48.812;9.232;2022-11-02T05:57:25;10.20;99.90
4461;DHT22;2243;48.812;9.232;2022-11-02T05:59:56;10.10;99.90
4461;DHT22;2243;48.812;9.232;2022-11-02T06:02:26;10.00;99.90
4461;DHT22;2243;48.812;9.232;2022-11-02T06:04:57;10.10;99.90
4461;DHT22;2243;48.812;9.232;2022-11-02T06:07:28;10.10;99.90
4461;DHT22;2243;48.812;9.232;2022-11-02T06:09:59;10.10;99.90
4461;DHT22;2243;48.812;9.232;2022-11-02T06:12:32;10.10;99.90
4461;DHT22;2243;48.812;9.232;2022-11-02T06:15:03;10.00;99.90
4461;DHT22;2243;48.812;9.232;2022-11-02T06:17:38;10.10;99.90
4461;DHT22;2243;48.812;9.232;2022-11-02T06:20:10;10.10;99.90
4461;DHT22;2243;48.812;9.232;2022-11-02T06:22:41;10.20;99.90
4461;DHT22;2243;48.812;9.232;2022-11-02T06:25:12;10.20;99.90
4461;DHT22;2243;48.812;9.232;2022-11-02T06:27:54;10.20;99.90
4461;DHT22;2243;48.812;9.232;2022-11-02T06:30:27;10.10;99.90
4461;DHT22;2243;48.812;9.232;2022-11-02T06:32:58;10.20;99.90
4461;DHT22;2243;48.812;9.232;2022-11-02T06:35:36;10.20;99.90
4461;DHT22;2243;48.812;9.232;2022-11-02T06:38:07;10.20;99.90
4461;DHT22;2243;48.812;9.232;2022-11-02T06:40:38;10.20;99.90
4461;DHT22;2243;48.812;9.232;2022-11-02T06:43:09;10.20;99.90
4461;DHT22;2243;48.812;9.232;2022-11-02T06:45:47;10.20;99.90
4461;DHT22;2243;48.812;9.232;2022-11-02T06:48:17;10.40;99.90
4461;DHT22;2243;48.812;9.232;2022-11-02T06:50:48;10.40;99.90
4461;DHT22;2243;48.812;9.232;2022-11-02T06:53:19;10.40;99.90
4461;DHT22;2243;48.812;9.232;2022-11-02T06:55:55;10.40;99.90
4461;DHT22;2243;48.812;9.232;2022-11-02T06:58:26;10.50;99.90
4461;DHT22;2243;48.812;9.232;2022-11-02T07:01:03;10.50;99.90
4461;DHT22;2243;48.812;9.232;2022-11-02T07:03:36;10.50;99.90
4461;DHT22;2243;48.812;9.232;2022-11-02T07:06:08;10.50;99.90
4461;DHT22;2243;48.812;9.232;2022-11-02T07:08:46;10.60;99.90
4461;DHT22;2243;48.812;9.232;2022-11-02T07:11:20;10.60;99.90
4461;DHT22;2243;48.812;9.232;2022-11-02T07:13:51;10.70;99.90
4461;DHT22;2243;48.812;9.232;2022-11-02T07:16:22;10.70;99.90
4461;DHT22;2243;48.812;9.232;2022-11-02T07:18:53;10.80;99.90
4461;DHT22;2243;48.812;9.232;2022-11-02T07:21:23;10.80;99.90
4461;DHT22;2243;48.812;9.232;2022-11-02T07:23:54;10.80;99.90
4461;DHT22;2243;48.812;9.232;2022-11-02T07:26:25;10.90;99.90
4461;DHT22;2243;48.812;9.232;2022-11-02T07:28:56;10.90;99.90
4461;DHT22;2243;48.812;9.232;2022-11-02T07:31:29;11.00;99.90
4461;DHT22;2243;48.812;9.232;2022-11-02T07:34:02;11.10;99.90
4461;DHT22;2243;48.812;9.232;2022-11-02T07:36:33;11.10;99.90
4461;DHT22;2243;48.812;9.232;2022-11-02T07:39:04;11.20;99.90
4461;DHT22;2243;48.812;9.232;2022-11-02T07:41:36;11.30;99.90
4461;DHT22;2243;48.812;9.232;2022-11-02T07:44:07;11.40;99.90
4461;DHT22;2243;48.812;9.232;2022-11-02T07:46:38;11.50;99.90
4461;DHT22;2243;48.812;9.232;2022-11-02T07:49:09;11.60;99.90
4461;DHT22;2243;48.812;9.232;2022-11-02T07:51:43;11.70;99.90
4461;DHT22;2243;48.812;9.232;2022-11-02T07:54:14;11.90;99.90
4461;DHT22;2243;48.812;9.232;2022-11-02T07:56:45;12.10;99.90
4461;DHT22;2243;48.812;9.232;2022-11-02T07:59:16;12.30;99.90
4461;DHT22;2243;48.812;9.232;2022-11-02T08:01:47;12.40;99.90
4461;DHT22;2243;48.812;9.232;2022-11-02T08:04:18;12.50;99.90
4461;DHT22;2243;48.812;9.232;2022-11-02T08:06:49;12.60;99.90
4461;DHT22;2243;48.812;9.232;2022-11-02T08:09:20;12.70;99.90
4461;DHT22;2243;48.812;9.232;2022-11-02T08:11:51;12.70;99.90
4461;DHT22;2243;48.812;9.232;2022-11-02T08:14:22;12.70;99.90
4461;DHT22;2243;48.812;9.232;2022-11-02T08:16:53;12.80;99.90
4461;DHT22;2243;48.812;9.232;2022-11-02T08:19:24;12.90;99.90
4461;DHT22;2243;48.812;9.232;2022-11-02T08:21:55;13.00;99.90
4461;DHT22;2243;48.812;9.232;2022-11-02T08:24:26;13.20;99.90
4461;DHT22;2243;48.812;9.232;2022-11-02T08:26:56;13.20;99.90
4461;DHT22;2243;48.812;9.232;2022-11-02T08:29:27;13.20;99.90
4461;DHT22;2243;48.812;9.232;2022-11-02T08:31:58;13.30;99.90
4461;DHT22;2243;48.812;9.232;2022-11-02T08:34:29;13.30;99.90
4461;DHT22;2243;48.812;9.232;2022-11-02T08:37:00;13.40;99.90
4461;DHT22;2243;48.812;9.232;2022-11-02T08:39:32;13.40;99.90
4461;DHT22;2243;48.812;9.232;2022-11-02T08:42:03;13.50;99.90
4461;DHT22;2243;48.812;9.232;2022-11-02T08:44:34;13.50;99.90
4461;DHT22;2243;48.812;9.232;2022-11-02T08:47:11;13.60;99.90
4461;DHT22;2243;48.812;9.232;2022-11-02T08:49:43;13.60;99.90
4461;DHT22;2243;48.812;9.232;2022-11-02T08:52:14;13.70;99.90
4461;DHT22;2243;48.812;9.232;2022-11-02T08:54:45;13.70;99.90
4461;DHT22;2243;48.812;9.232;2022-11-02T08:57:15;13.70;99.90
4461;DHT22;2243;48.812;9.232;2022-11-02T08:59:46;13.70;99.90
4461;DHT22;2243;48.812;9.232;2022-11-02T09:02:17;13.70;99.90
4461;DHT22;2243;48.812;9.232;2022-11-02T09:04:48;13.80;99.90
4461;DHT22;2243;48.812;9.232;2022-11-02T09:07:19;13.80;99.90
4461;DHT22;2243;48.812;9.232;2022-11-02T09:09:51;13.90;99.90
4461;DHT22;2243;48.812;9.232;2022-11-02T09:12:22;13.90;99.90
4461;DHT22;2243;48.812;9.232;2022-11-02T09:14:53;14.00;99.90
4461;DHT22;2243;48.812;9.232;2022-11-02T09:17:30;13.90;99.90
4461;DHT22;2243;48.812;9.232;2022-11-02T09:20:01;14.00;99.90
4461;DHT22;2243;48.812;9.232;2022-11-02T09:22:31;14.20;99.90
4461;DHT22;2243;48.812;9.232;2022-11-02T09:25:03;14.30;99.90
4461;DHT22;2243;48.812;9.232;2022-11-02T09:27:34;14.40;99.90
4461;DHT22;2243;48.812;9.232;2022-11-02T09:30:05;14.40;99.90
4461;DHT22;2243;48.812;9.232;2022-11-02T09:32:37;14.30;99.90
4461;DHT22;2243;48.812;9.232;2022-11-02T09:35:10;14.40;99.90
4461;DHT22;2243;48.812;9.232;2022-11-02T09:37:42;14.50;99.90
4461;DHT22;2243;48.812;9.232;2022-11-02T09:40:22;14.50;99.90
4461;DHT22;2243;48.812;9.232;2022-11-02T09:46:18;14.50;99.90
4461;DHT22;2243;48.812;9.232;2022-11-02T09:49:22;14.60;99.90
4461;DHT22;2243;48.812;9.232;2022-11-02T09:51:58;14.70;99.90
4461;DHT22;2243;48.812;9.232;2022-11-02T09:54:42;14.80;99.90
4461;DHT22;2243;48.812;9.232;2022-11-02T09:57:29;14.80;99.90
4461;DHT22;2243;48.812;9.232;2022-11-02T10:00:02;14.80;99.90
4461;DHT22;2243;48.812;9.232;2022-11-02T10:05:46;14.70;99.90
4461;DHT22;2243;48.812;9.232;2022-11-02T10:12:06;14.80;99.90
4461;DHT22;2243;48.812;9.232;2022-11-02T10:17:27;14.60;99.90
4461;DHT22;2243;48.812;9.232;2022-11-02T10:20:25;14.60;99.90
4461;DHT22;2243;48.812;9.232;2022-11-02T10:23:08;14.60;99.90
4461;DHT22;2243;48.812;9.232;2022-11-02T10:25:46;14.60;99.90
4461;DHT22;2243;48.812;9.232;2022-11-02T10:28:23;14.60;99.90
4461;DHT22;2243;48.812;9.232;2022-11-02T10:30:56;14.60;99.90
4461;DHT22;2243;48.812;9.232;2022-11-02T10:33:29;14.70;99.90
4461;DHT22;2243;48.812;9.232;2022-11-02T10:39:20;14.80;99.90
4461;DHT22;2243;48.812;9.232;2022-11-02T10:44:53;14.80;99.90
4461;DHT22;2243;48.812;9.232;2022-11-02T10:47:30;14.80;99.90
4461;DHT22;2243;48.812;9.232;2022-11-02T10:50:18;14.80;99.90
4461;DHT22;2243;48.812;9.232;2022-11-02T10:53:01;14.80;99.90
4461;DHT22;2243;48.812;9.232;2022-11-02T10:56:00;14.80;99.90
4461;DHT22;2243;48.812;9.232;2022-11-02T10:58:42;14.80;99.90
4461;DHT22;2243;48.812;9.232;2022-11-02T11:01:31;14.70;99.90
4461;DHT22;2243;48.812;9.232;2022-11-02T11:04:09;14.70;99.90
4461;DHT22;2243;48.812;9.232;2022-11-02T11:06:50;14.80;99.90
4461;DHT22;2243;48.812;9.232;2022-11-02T11:09:25;14.80;99.90
4461;DHT22;2243;48.812;9.232;2022-11-02T11:12:03;14.90;99.90
4461;DHT22;2243;48.812;9.232;2022-11-02T11:14:43;15.00;99.90
4461;DHT22;2243;48.812;9.232;2022-11-02T11:17:38;15.10;99.90
4461;DHT22;2243;48.812;9.232;2022-11-02T11:20:37;15.00;99.90
4461;DHT22;2243;48.812;9.232;2022-11-02T11:26:11;15.10;99.90
4461;DHT22;2243;48.812;9.232;2022-11-02T11:28:56;15.20;99.90
4461;DHT22;2243;48.812;9.232;2022-11-02T11:31:27;15.30;99.90
4461;DHT22;2243;48.812;9.232;2022-11-02T11:34:00;15.40;99.90
4461;DHT22;2243;48.812;9.232;2022-11-02T11:36:33;15.40;99.90
4461;DHT22;2243;48.812;9.232;2022-11-02T11:39:28;15.50;99.90
4461;DHT22;2243;48.812;9.232;2022-11-02T11:42:02;15.60;99.90
4461;DHT22;2243;48.812;9.232;2022-11-02T11:44:35;15.70;99.90
4461;DHT22;2243;48.812;9.232;2022-11-02T11:47:05;16.10;99.90
4461;DHT22;2243;48.812;9.232;2022-11-02T11:49:46;16.40;99.90
4461;DHT22;2243;48.812;9.232;2022-11-02T11:52:39;16.60;99.90
4461;DHT22;2243;48.812;9.232;2022-11-02T11:55:27;16.70;99.90
4461;DHT22;2243;48.812;9.232;2022-11-02T11:58:15;17.00;99.90
4461;DHT22;2243;48.812;9.232;2022-11-02T12:01:04;17.50;99.90
4461;DHT22;2243;48.812;9.232;2022-11-02T12:03:50;17.70;99.90
4461;DHT22;2243;48.812;9.232;2022-11-02T12:09:37;17.60;99.90
4461;DHT22;2243;48.812;9.232;2022-11-02T12:15:32;17.70;98.30
4461;DHT22;2243;48.812;9.232;2022-11-02T12:18:27;18.00;97.30
4461;DHT22;2243;48.812;9.232;2022-11-02T12:52:45;18.30;95.30
4461;DHT22;2243;48.812;9.232;2022-11-02T12:55:33;18.60;94.40
4461;DHT22;2243;48.812;9.232;2022-11-02T12:58:20;18.60;94.20
4461;DHT22;2243;48.812;9.232;2022-11-02T13:01:01;18.50;94.20
4461;DHT22;2243;48.812;9.232;2022-11-02T13:06:43;18.30;94.60
4461;DHT22;2243;48.812;9.232;2022-11-02T13:09:28;18.50;94.80
4461;DHT22;2243;48.812;9.232;2022-11-02T13:12:12;18.60;94.00
4461;DHT22;2243;48.812;9.232;2022-11-02T13:14:48;18.70;93.70
4461;DHT22;2243;48.812;9.232;2022-11-02T13:22:54;18.60;92.90
4461;DHT22;2243;48.812;9.232;2022-11-02T13:25:36;18.40;93.00
4461;DHT22;2243;48.812;9.232;2022-11-02T13:28:17;18.60;93.10
4461;DHT22;2243;48.812;9.232;2022-11-02T13:30:54;18.90;92.60
4461;DHT22;2243;48.812;9.232;2022-11-02T13:33:32;19.00;92.20
4461;DHT22;2243;48.812;9.232;2022-11-02T13:36:09;18.90;92.20
4461;DHT22;2243;48.812;9.232;2022-11-02T13:50:26;18.90;92.80
4461;DHT22;2243;48.812;9.232;2022-11-02T13:53:03;18.90;93.60
4461;DHT22;2243;48.812;9.232;2022-11-02T13:55:51;18.90;94.20
4461;DHT22;2243;48.812;9.232;2022-11-02T13:58:26;18.70;95.10
4461;DHT22;2243;48.812;9.232;2022-11-02T14:01:03;18.60;95.60
4461;DHT22;2243;48.812;9.232;2022-11-02T14:06:41;18.40;95.60
4461;DHT22;2243;48.812;9.232;2022-11-02T14:09:38;18.20;96.30
4461;DHT22;2243;48.812;9.232;2022-11-02T14:25:52;17.60;96.70
4461;DHT22;2243;48.812;9.232;2022-11-02T14:28:42;17.40;97.10
4461;DHT22;2243;48.812;9.232;2022-11-02T14:39:52;16.80;98.30
4461;DHT22;2243;48.812;9.232;2022-11-02T14:48:55;16.50;99.40
4461;DHT22;2243;48.812;9.232;2022-11-02T14:51:32;16.40;99.40
4461;DHT22;2243;48.812;9.232;2022-11-02T14:54:16;16.30;99.50
4461;DHT22;2243;48.812;9.232;2022-11-02T14:56:55;16.20;99.30
4461;DHT22;2243;48.812;9.232;2022-11-02T14:59:36;16.20;99.50
4461;DHT22;2243;48.812;9.232;2022-11-02T15:02:19;16.10;99.50
4461;DHT22;2243;48.812;9.232;2022-11-02T15:05:02;16.20;99.20
4461;DHT22;2243;48.812;9.232;2022-11-02T15:07:40;16.10;99.60
4461;DHT22;2243;48.812;9.232;2022-11-02T15:12:48;15.90;99.90
4461;DHT22;2243;48.812;9.232;2022-11-02T15:15:32;15.90;99.90
4461;DHT22;2243;48.812;9.232;2022-11-02T15:26:40;15.50;99.90
4461;DHT22;2243;48.812;9.232;2022-11-02T15:31:57;15.30;99.90
4461;DHT22;2243;48.812;9.232;2022-11-02T15:34:47;15.30;99.90
4461;DHT22;2243;48.812;9.232;2022-11-02T15:37:24;15.20;99.90
4461;DHT22;2243;48.812;9.232;2022-11-02T15:40:01;15.10;99.90
4461;DHT22;2243;48.812;9.232;2022-11-02T15:42:54;15.00;99.90
4461;DHT22;2243;48.812;9.232;2022-11-02T15:45:58;14.90;99.90
4461;DHT22;2243;48.812;9.232;2022-11-02T15:48:43;14.70;99.90
4461;DHT22;2243;48.812;9.232;2022-11-02T15:51:28;14.70;99.90
4461;DHT22;2243;48.812;9.232;2022-11-02T15:54:22;14.50;99.90
4461;DHT22;2243;48.812;9.232;2022-11-02T16:00:21;14.30;99.90
4461;DHT22;2243;48.812;9.232;2022-11-02T16:03:00;14.20;99.90
4461;DHT22;2243;48.812;9.232;2022-11-02T16:05:42;14.00;99.90
4461;DHT22;2243;48.812;9.232;2022-11-02T16:08:34;13.90;99.90
4461;DHT22;2243;48.812;9.232;2022-11-02T16:11:12;13.70;99.90
4461;DHT22;2243;48.812;9.232;2022-11-02T16:13:46;13.60;99.90
4461;DHT22;2243;48.812;9.232;2022-11-02T16:16:48;13.50;99.90
4461;DHT22;2243;48.812;9.232;2022-11-02T16:19:20;13.30;99.90
4461;DHT22;2243;48.812;9.232;2022-11-02T16:21:52;13.30;99.90
4461;DHT22;2243;48.812;9.232;2022-11-02T16:24:30;13.10;99.90
4461;DHT22;2243;48.812;9.232;2022-11-02T16:27:02;12.90;99.90
4461;DHT22;2243;48.812;9.232;2022-11-02T16:29:33;12.70;99.90
4461;DHT22;2243;48.812;9.232;2022-11-02T16:32:11;12.70;99.90
4461;DHT22;2243;48.812;9.232;2022-11-02T16:34:43;12.70;99.90
4461;DHT22;2243;48.812;9.232;2022-11-02T16:37:15;12.60;99.90
4461;DHT22;2243;48.812;9.232;2022-11-02T16:39:48;12.50;99.90
4461;DHT22;2243;48.812;9.232;2022-11-02T16:42:24;12.40;99.90
4461;DHT22;2243;48.812;9.232;2022-11-02T16:44:57;12.30;99.90
4461;DHT22;2243;48.812;9.232;2022-11-02T16:50:25;12.20;99.90
4461;DHT22;2243;48.812;9.232;2022-11-02T16:53:00;12.10;99.90
4461;DHT22;2243;48.812;9.232;2022-11-02T16:55:50;12.00;99.90
4461;DHT22;2243;48.812;9.232;2022-11-02T16:58:23;11.90;99.90
4461;DHT22;2243;48.812;9.232;2022-11-02T17:00:59;12.00;99.90
4461;DHT22;2243;48.812;9.232;2022-11-02T17:03:32;12.00;99.90
4461;DHT22;2243;48.812;9.232;2022-11-02T17:06:05;12.00;99.90
4461;DHT22;2243;48.812;9.232;2022-11-02T17:08:38;11.90;99.90
4461;DHT22;2243;48.812;9.232;2022-11-02T17:11:14;11.80;99.90
4461;DHT22;2243;48.812;9.232;2022-11-02T17:13:52;11.70;99.90
4461;DHT22;2243;48.812;9.232;2022-11-02T17:16:24;11.60;99.90
4461;DHT22;2243;48.812;9.232;2022-11-02T17:18:55;11.60;99.90
4461;DHT22;2243;48.812;9.232;2022-11-02T17:21:28;11.60;99.90
4461;DHT22;2243;48.812;9.232;2022-11-02T17:23:59;11.50;99.90
4461;DHT22;2243;48.812;9.232;2022-11-02T17:26:32;11.50;99.90
4461;DHT22;2243;48.812;9.232;2022-11-02T17:31:55;11.50;99.90
4461;DHT22;2243;48.812;9.232;2022-11-02T17:34:28;11.50;99.90
4461;DHT22;2243;48.812;9.232;2022-11-02T17:37:00;11.30;99.90
4461;DHT22;2243;48.812;9.232;2022-11-02T17:39:32;11.20;99.90
4461;DHT22;2243;48.812;9.232;2022-11-02T17:42:03;11.20;99.90
4461;DHT22;2243;48.812;9.232;2022-11-02T17:44:53;11.10;99.90
4461;DHT22;2243;48.812;9.232;2022-11-02T17:47:28;11.10;99.90
4461;DHT22;2243;48.812;9.232;2022-11-02T17:49:59;11.10;99.90
4461;DHT22;2243;48.812;9.232;2022-11-02T17:52:30;11.00;99.90
4461;DHT22;2243;48.812;9.232;2022-11-02T17:55:01;11.00;99.90
4461;DHT22;2243;48.812;9.232;2022-11-02T17:57:32;11.00;99.90
4461;DHT22;2243;48.812;9.232;2022-11-02T18:00:03;10.90;99.90
4461;DHT22;2243;48.812;9.232;2022-11-02T18:02:40;10.80;99.90
4461;DHT22;2243;48.812;9.232;2022-11-02T18:07:57;10.60;99.90
4461;DHT22;2243;48.812;9.232;2022-11-02T18:10:31;10.60;99.90
4461;DHT22;2243;48.812;9.232;2022-11-02T18:13:04;10.50;99.90
4461;DHT22;2243;48.812;9.232;2022-11-02T18:15:35;10.50;99.90
4461;DHT22;2243;48.812;9.232;2022-11-02T18:18:06;10.40;99.90
4461;DHT22;2243;48.812;9.232;2022-11-02T18:20:38;10.40;99.90
4461;DHT22;2243;48.812;9.232;2022-11-02T18:23:15;10.40;99.90
4461;DHT22;2243;48.812;9.232;2022-11-02T18:25:49;10.40;99.90
4461;DHT22;2243;48.812;9.232;2022-11-02T18:28:24;10.40;99.90
4461;DHT22;2243;48.812;9.232;2022-11-02T18:30:55;10.30;99.90
4461;DHT22;2243;48.812;9.232;2022-11-02T18:33:26;10.20;99.90
4461;DHT22;2243;48.812;9.232;2022-11-02T18:36:04;10.20;99.90
4461;DHT22;2243;48.812;9.232;2022-11-02T18:38:37;10.10;99.90
4461;DHT22;2243;48.812;9.232;2022-11-02T18:41:18;10.10;99.90
4461;DHT22;2243;48.812;9.232;2022-11-02T18:44:04;10.10;99.90
4461;DHT22;2243;48.812;9.232;2022-11-02T18:46:44;10.10;99.90
4461;DHT22;2243;48.812;9.232;2022-11-02T18:49:15;10.00;99.90
4461;DHT22;2243;48.812;9.232;2022-11-02T18:51:46;10.00;99.90
4461;DHT22;2243;48.812;9.232;2022-11-02T18:54:17;10.00;99.90
4461;DHT22;2243;48.812;9.232;2022-11-02T18:56:48;10.10;99.90
4461;DHT22;2243;48.812;9.232;2022-11-02T18:59:19;10.10;99.90
4461;DHT22;2243;48.812;9.232;2022-11-02T19:01:49;10.10;99.90
4461;DHT22;2243;48.812;9.232;2022-11-02T19:04:21;10.10;99.90
4461;DHT22;2243;48.812;9.232;2022-11-02T19:06:51;10.00;99.90
4461;DHT22;2243;48.812;9.232;2022-11-02T19:09:46;10.00;99.90
4461;DHT22;2243;48.812;9.232;2022-11-02T19:12:23;10.10;99.90
4461;DHT22;2243;48.812;9.232;2022-11-02T19:14:58;10.10;99.90
4461;DHT22;2243;48.812;9.232;2022-11-02T19:17:30;10.10;99.90
4461;DHT22;2243;48.812;9.232;2022-11-02T19:20:02;10.00;99.90
4461;DHT22;2243;48.812;9.232;2022-11-02T19:22:34;10.00;99.90
4461;DHT22;2243;48.812;9.232;2022-11-02T19:25:11;10.00;99.90
4461;DHT22;2243;48.812;9.232;2022-11-02T19:27:46;10.00;99.90
4461;DHT22;2243;48.812;9.232;2022-11-02T19:30:17;9.90;99.90
4461;DHT22;2243;48.812;9.232;2022-11-02T19:32:48;9.90;99.90
4461;DHT22;2243;48.812;9.232;2022-11-02T19:35:19;9.90;99.90
4461;DHT22;2243;48.812;9.232;2022-11-02T19:37:55;9.80;99.90
4461;DHT22;2243;48.812;9.232;2022-11-02T19:40:27;9.80;99.90
4461;DHT22;2243;48.812;9.232;2022-11-02T19:42:59;9.70;99.90
4461;DHT22;2243;48.812;9.232;2022-11-02T19:45:40;9.70;99.90